Meteo Giornale » Osservazioni meteo Italia » Treviso-Istrana

ore: 23:55 - Osservazioni Meteo Treviso-Istrana
Lat. 45° 41' N Lon. 12° 6' E Alt. 45 metri s.l.m.

sereno Europe/Rome

0 °C

Sereno

Temp. 24 Ore

0 °C

10 °C

Nord/Nord-Est

9.3 Km/h

Dew point -3 °C

Umidità 80 %

Visibilità  10 Km

Il sole sorge alle ore 07:41

Il sole tramonta alle ore 16:29

Data e Ora Cielo e Fenomeni T °C DP °C Um. % Pres. hPa Vis. km Vento km/h
Ieri h: 23:55 sereno Sereno 0 -3 80 1019 10 N/NE 9.3
Ieri h: 22:55 sereno Sereno 0 -3 80 1018 10 N 5.5
Ieri h: 21:55 sereno Sereno 0 -2 86 1018 10 N/NE 9.3
Ieri h: 20:55 sereno Sereno 1 -2 80 1019 10 N 0
Ieri h: 19:55 sereno Sereno 1 -4 69 1019 10 N/NE 9.3
Ieri h: 18:55 sereno Sereno 3 -5 55 1019 10 N 3.7
Ieri h: 17:55 sereno Sereno 5 -3 56 1018 10 N 1.8
Ieri h: 16:55 sereno Sereno 7 -3 48 1018 10 N 0
Ieri h: 15:55 sereno Sereno 10 -2 42 1018 10 N 3.7
Ieri h: 14:55 sereno Sereno 10 -4 36 1018 10 N 5.5
Ieri h: 13:55 sereno Sereno 10 -3 39 1019 10 N 5.5
Ieri h: 12:55 sereno Sereno 9 -3 42 1019 10 O/SO 11.1
Ieri h: 11:55 sereno Sereno 8 -2 49 1019 10 O/SO 9.3
Ieri h: 10:55 sereno Sereno 6 -4 48 1020 10 N 1.8
Ieri h: 09:55 sereno Sereno 4 -3 60 1020 10 N 3.7
Ieri h: 08:55 sereno Sereno 1 -4 69 1020 10 N 5.5
Ieri h: 06:55 sereno Sereno -0 -4 74 1019 10 N 0
Ieri h: 05:55 sereno Sereno 0 -5 68 1019 10 N 3.7
Ieri h: 04:55 sereno Sereno 0 -5 68 1019 10 N 9.3
Ieri h: 03:55 sereno Sereno 1 -5 64 1019 10 N 9.3
Ieri h: 02:55 sereno Sereno 1 -4 69 1019 10 N 9.3
Ieri h: 01:55 sereno Sereno 1 -4 69 1019 10 N 11.1
Ieri h: 00:55 sereno Sereno 2 -3 69 1019 10 N 5.5